createdAt,value
2024-03-13T00:00:05.704Z,10.05
2024-03-13T00:02:43.088Z,7.18
2024-03-13T00:05:13.967Z,6.72
2024-03-13T00:07:44.907Z,4.63
2024-03-13T00:10:15.907Z,5.38
2024-03-13T00:12:46.713Z,5.38
2024-03-13T00:15:19.792Z,7.82
2024-03-13T00:17:50.355Z,6.68
2024-03-13T00:20:20.987Z,7.25
2024-03-13T00:22:51.772Z,5.50
2024-03-13T00:25:22.250Z,7.82
2024-03-13T00:27:52.735Z,8.02
2024-03-13T00:30:26.697Z,5.90
2024-03-13T00:32:58.433Z,7.35
2024-03-13T00:35:28.904Z,6.90
2024-03-13T00:38:00.775Z,7.70
2024-03-13T00:40:31.503Z,6.50
2024-03-13T00:43:02.358Z,7.65
2024-03-13T00:45:35.471Z,6.68
2024-03-13T00:48:06.406Z,8.30
2024-03-13T00:50:37.067Z,5.57
2024-03-13T00:53:10.061Z,4.78
2024-03-13T00:55:40.516Z,7.28
2024-03-13T00:58:11.577Z,6.72
2024-03-13T01:00:44.802Z,5.18
2024-03-13T01:03:15.453Z,6.15
2024-03-13T01:05:46.020Z,7.60
2024-03-13T01:08:16.419Z,5.28
2024-03-13T01:10:47.474Z,7.63
2024-03-13T01:13:20.239Z,5.68
2024-03-13T01:15:53.692Z,5.30
2024-03-13T01:18:25.685Z,4.50
2024-03-13T01:20:56.765Z,3.67
2024-03-13T01:23:27.276Z,6.22
2024-03-13T01:26:01.008Z,5.03
2024-03-13T01:28:31.544Z,5.57
2024-03-13T01:31:07.461Z,5.95
2024-03-13T01:33:39.657Z,6.47
2024-03-13T01:36:10.688Z,6.22
2024-03-13T01:38:38.604Z,4.30
2024-03-13T01:41:21.558Z,5.13
2024-03-13T01:44:11.270Z,4.28
2024-03-13T01:46:56.808Z,3.70
2024-03-13T01:49:39.813Z,5.05
2024-03-13T01:52:24.701Z,15.85
2024-03-13T01:55:11.176Z,3.50
2024-03-13T01:58:03.928Z,4.72
2024-03-13T02:00:47.069Z,4.57
2024-03-13T02:03:22.672Z,4.93
2024-03-13T02:05:54.718Z,5.68
2024-03-13T02:08:25.586Z,3.40
2024-03-13T02:10:59.352Z,5.10
2024-03-13T02:13:30.236Z,5.78
2024-03-13T02:16:00.767Z,5.35
2024-03-13T02:18:34.684Z,4.07
2024-03-13T02:21:05.213Z,4.30
2024-03-13T02:23:40.507Z,4.20
2024-03-13T02:26:10.984Z,5.28
2024-03-13T02:28:42.080Z,5.78
2024-03-13T02:31:13.067Z,3.53
2024-03-13T02:33:44.992Z,4.95
2024-03-13T02:36:15.446Z,4.45
2024-03-13T02:38:50.928Z,3.85
2024-03-13T02:41:21.404Z,5.72
2024-03-13T02:43:51.856Z,6.68
2024-03-13T02:46:22.407Z,4.32
2024-03-13T02:48:53.254Z,5.28
2024-03-13T02:51:24.055Z,4.57
2024-03-13T02:53:57.415Z,5.10
2024-03-13T02:56:28.004Z,5.38
2024-03-13T02:58:58.537Z,6.10
2024-03-13T03:01:29.051Z,5.13
2024-03-13T03:04:00.669Z,4.03
2024-03-13T03:06:31.244Z,4.32
2024-03-13T03:09:05.303Z,4.60
2024-03-13T03:11:35.858Z,3.42
2024-03-13T03:14:06.489Z,4.30
2024-03-13T03:16:37.295Z,5.10
2024-03-13T03:19:07.938Z,3.30
2024-03-13T03:21:39.248Z,3.97
2024-03-13T03:24:12.292Z,3.67
2024-03-13T03:26:42.934Z,5.30
2024-03-13T03:29:13.373Z,4.65
2024-03-13T03:31:44.252Z,3.47
2024-03-13T03:34:14.763Z,4.18
2024-03-13T03:36:45.487Z,3.95
2024-03-13T03:39:19.275Z,5.45
2024-03-13T03:41:50.279Z,4.55
2024-03-13T03:44:20.723Z,3.58
2024-03-13T03:46:51.428Z,3.85
2024-03-13T03:49:24.126Z,3.30
2024-03-13T03:51:54.822Z,6.10
2024-03-13T03:54:27.862Z,2.65
2024-03-13T03:56:58.335Z,3.42
2024-03-13T03:59:28.766Z,4.90
2024-03-13T04:01:59.579Z,4.32
2024-03-13T04:04:30.173Z,4.07
2024-03-13T04:07:01.006Z,4.10
2024-03-13T04:09:35.285Z,3.35
2024-03-13T04:12:05.885Z,3.10
2024-03-13T04:14:36.505Z,4.15
2024-03-13T04:17:07.808Z,4.68
2024-03-13T04:19:39.044Z,4.40
2024-03-13T04:22:10.355Z,5.43
2024-03-13T04:24:44.790Z,4.18
2024-03-13T04:27:15.409Z,3.72
2024-03-13T04:29:48.557Z,5.20
2024-03-13T04:32:22.479Z,3.95
2024-03-13T04:34:53.274Z,3.53
2024-03-13T04:37:24.748Z,4.07
2024-03-13T04:40:01.123Z,3.20
2024-03-13T04:42:32.260Z,4.07
2024-03-13T04:45:02.787Z,4.15
2024-03-13T04:47:38.478Z,3.67
2024-03-13T04:50:13.184Z,3.20
2024-03-13T04:52:43.726Z,2.63
2024-03-13T04:55:17.063Z,3.60
2024-03-13T04:57:47.709Z,3.45
2024-03-13T05:00:18.847Z,3.47
2024-03-13T05:02:49.328Z,3.75
2024-03-13T05:05:19.953Z,4.63
2024-03-13T05:07:52.450Z,4.32
2024-03-13T05:10:30.809Z,3.47
2024-03-13T05:13:02.525Z,3.97
2024-03-13T05:15:33.110Z,3.35
2024-03-13T05:18:03.713Z,5.38
2024-03-13T05:20:34.319Z,3.08
2024-03-13T05:23:07.850Z,3.78
2024-03-13T05:25:41.033Z,3.78
2024-03-13T05:28:11.777Z,3.35
2024-03-13T05:30:42.305Z,2.70
2024-03-13T05:33:13.885Z,5.60
2024-03-13T05:35:44.494Z,4.13
2024-03-13T05:38:14.930Z,3.20
2024-03-13T05:40:48.513Z,4.40
2024-03-13T05:43:21.439Z,6.00
2024-03-13T05:45:52.014Z,3.88
2024-03-13T05:48:23.356Z,3.45
2024-03-13T05:50:55.193Z,3.50
2024-03-13T05:53:25.778Z,2.97
2024-03-13T05:55:58.938Z,4.72
2024-03-13T05:58:29.564Z,6.82
2024-03-13T06:01:03.252Z,2.88
2024-03-13T06:03:34.185Z,3.65
2024-03-13T06:06:04.841Z,2.85
2024-03-13T06:08:35.836Z,5.55
2024-03-13T06:11:09.087Z,7.10
2024-03-13T06:13:39.654Z,3.92
2024-03-13T06:16:10.997Z,4.95
2024-03-13T06:18:41.903Z,6.85
2024-03-13T06:21:12.656Z,7.15
2024-03-13T06:23:49.644Z,6.05
2024-03-13T06:26:23.237Z,4.57
2024-03-13T06:29:06.232Z,10.80
2024-03-13T06:31:37.357Z,4.18
2024-03-13T06:34:10.207Z,6.13
2024-03-13T06:36:40.900Z,8.43
2024-03-13T06:39:11.418Z,12.02
2024-03-13T06:41:44.466Z,5.90
2024-03-13T06:44:14.903Z,7.97
2024-03-13T06:46:46.419Z,7.22
2024-03-13T06:49:18.126Z,9.65
2024-03-13T06:51:49.000Z,6.43
2024-03-13T06:54:19.584Z,6.93
2024-03-13T06:56:52.641Z,11.40
2024-03-13T06:59:24.763Z,4.63
2024-03-13T07:01:57.721Z,5.75
2024-03-13T07:04:28.441Z,8.80
2024-03-13T07:07:00.897Z,5.88
2024-03-13T07:09:31.360Z,6.40
2024-03-13T07:12:05.522Z,13.30
2024-03-13T07:14:36.022Z,6.30
2024-03-13T07:17:08.300Z,7.82
2024-03-13T07:19:39.347Z,7.18
2024-03-13T07:22:11.043Z,14.50
2024-03-13T07:24:41.541Z,5.20
2024-03-13T07:27:14.591Z,6.03
2024-03-13T07:29:45.031Z,7.88
2024-03-13T07:32:17.554Z,10.82
2024-03-13T07:34:48.727Z,9.15
2024-03-13T07:37:19.268Z,14.10
2024-03-13T07:39:49.933Z,11.88
2024-03-13T07:42:23.023Z,9.05
2024-03-13T07:44:56.027Z,8.60
2024-03-13T07:47:26.769Z,8.25
2024-03-13T07:49:57.288Z,8.20
2024-03-13T07:52:29.802Z,10.73
2024-03-13T07:55:00.397Z,7.70
2024-03-13T07:57:33.575Z,7.57
2024-03-13T08:00:04.116Z,8.30
2024-03-13T08:02:43.658Z,7.93
2024-03-13T08:05:14.596Z,7.15
2024-03-13T09:05:54.165Z,6.85
2024-03-13T09:08:40.333Z,8.25
2024-03-13T09:11:18.495Z,6.28
2024-03-13T09:13:49.638Z,6.40
2024-03-13T09:16:20.066Z,7.43
2024-03-13T09:18:53.272Z,7.15
2024-03-13T09:21:23.890Z,6.25
2024-03-13T09:23:55.060Z,8.13
2024-03-13T09:26:25.728Z,4.93
2024-03-13T09:28:57.396Z,6.38
2024-03-13T09:31:28.198Z,7.32
2024-03-13T09:34:01.893Z,8.02
2024-03-13T09:36:32.930Z,5.57
2024-03-13T09:39:05.049Z,6.95
2024-03-13T09:41:35.735Z,6.75
2024-03-13T09:44:07.274Z,7.80
2024-03-13T09:46:38.000Z,8.68
2024-03-13T09:49:11.714Z,8.00
2024-03-13T09:51:44.984Z,10.02
2024-03-13T09:54:16.772Z,8.05
2024-03-13T09:56:48.229Z,9.82
2024-03-13T09:59:18.999Z,10.35
2024-03-13T10:01:52.015Z,8.07
2024-03-13T10:04:26.272Z,9.10
2024-03-13T10:06:58.493Z,6.32
2024-03-13T10:09:30.135Z,9.63
2024-03-13T10:12:04.504Z,12.75
2024-03-13T10:14:36.762Z,7.00
2024-03-13T10:17:09.280Z,8.48
2024-03-13T10:19:44.735Z,5.50
2024-03-13T10:22:16.222Z,6.35
2024-03-13T10:24:47.626Z,9.43
2024-03-13T10:27:18.921Z,9.02
2024-03-13T10:29:50.093Z,8.57
2024-03-13T10:32:22.149Z,5.97
2024-03-13T10:34:55.935Z,6.40
2024-03-13T10:37:28.155Z,8.20
2024-03-13T10:40:01.664Z,7.53
2024-03-13T10:42:33.060Z,9.18
2024-03-13T10:45:06.214Z,8.70
2024-03-13T10:47:36.901Z,8.52
2024-03-13T10:50:11.178Z,9.25
2024-03-13T10:52:42.422Z,7.75
2024-03-13T10:55:13.807Z,8.15
2024-03-13T10:57:46.554Z,9.20
2024-03-13T11:00:22.832Z,8.02
2024-03-13T11:02:53.756Z,7.05
2024-03-13T11:05:27.167Z,6.65
2024-03-13T11:07:59.927Z,10.70
2024-03-13T11:10:31.301Z,7.68
2024-03-13T11:13:03.847Z,9.60
2024-03-13T11:15:34.907Z,7.10
2024-03-13T11:18:06.146Z,6.82
2024-03-13T11:20:41.205Z,8.27
2024-03-13T11:23:19.361Z,7.40
2024-03-13T11:25:51.444Z,10.10
2024-03-13T11:28:24.475Z,9.10
2024-03-13T11:30:55.839Z,9.35
2024-03-13T11:33:26.767Z,6.38
2024-03-13T11:36:02.340Z,5.90
2024-03-13T11:38:36.059Z,7.47
2024-03-13T11:41:07.051Z,6.60
2024-03-13T11:43:37.757Z,5.55
2024-03-13T11:46:14.173Z,10.95
2024-03-13T11:48:45.715Z,7.57
2024-03-13T11:51:18.882Z,7.15
2024-03-13T11:53:49.490Z,6.80
2024-03-13T11:56:26.127Z,8.02
2024-03-13T11:58:56.741Z,7.38
2024-03-13T12:01:27.812Z,7.20
2024-03-13T12:03:58.649Z,8.00
2024-03-13T12:06:45.716Z,8.57
2024-03-13T12:09:20.343Z,7.72
2024-03-13T12:11:55.540Z,7.10
2024-03-13T12:14:26.554Z,7.40
2024-03-13T12:16:57.062Z,6.50
2024-03-13T12:19:30.884Z,7.63
2024-03-13T12:22:06.842Z,6.63
2024-03-13T12:24:38.700Z,6.68
2024-03-13T12:27:11.088Z,10.38
2024-03-13T12:29:42.018Z,7.18
2024-03-13T12:32:14.720Z,6.80
2024-03-13T12:34:45.741Z,7.90
2024-03-13T12:37:21.997Z,6.97
2024-03-13T12:39:52.716Z,8.32
2024-03-13T12:42:25.088Z,7.60
2024-03-13T12:44:57.221Z,6.63
2024-03-13T12:47:28.078Z,7.68
2024-03-13T12:49:59.141Z,11.32
2024-03-13T12:52:36.815Z,8.80
2024-03-13T12:55:09.314Z,6.50
2024-03-13T12:57:40.721Z,7.25
2024-03-13T13:00:21.043Z,7.53
2024-03-13T13:02:55.171Z,7.28
2024-03-13T13:05:26.153Z,8.15
2024-03-13T13:08:00.524Z,6.97
2024-03-13T13:10:31.403Z,7.55
2024-03-13T13:13:01.922Z,7.72
2024-03-13T13:15:32.425Z,9.55
2024-03-13T13:18:03.236Z,7.90
2024-03-13T13:20:34.975Z,8.40
2024-03-13T13:23:08.602Z,9.38
2024-03-13T13:25:39.119Z,9.18
2024-03-13T13:28:14.226Z,5.97
2024-03-13T13:30:47.977Z,6.97
2024-03-13T13:33:18.794Z,6.13
2024-03-13T13:35:49.345Z,7.78
2024-03-13T13:38:25.410Z,8.88
2024-03-13T13:40:55.927Z,5.28
2024-03-13T13:43:26.737Z,5.72
2024-03-13T13:45:57.308Z,8.88
2024-03-13T13:48:29.650Z,9.43
2024-03-13T13:51:00.537Z,5.93
2024-03-13T13:53:34.527Z,8.50
2024-03-13T13:56:06.026Z,8.75
2024-03-13T13:58:36.708Z,8.88
2024-03-13T14:01:07.342Z,10.45
2024-03-13T14:03:38.912Z,5.68
2024-03-13T14:06:10.600Z,7.85
2024-03-13T14:08:43.949Z,7.47
2024-03-13T14:11:15.619Z,5.55
2024-03-13T14:13:46.865Z,7.30
2024-03-13T14:16:17.366Z,5.70
2024-03-13T14:18:47.903Z,6.32
2024-03-13T14:21:22.704Z,6.53
2024-03-13T14:23:56.049Z,5.38
2024-03-13T14:26:26.933Z,6.03
2024-03-13T14:28:57.360Z,7.47
2024-03-13T14:31:28.107Z,4.57
2024-03-13T14:33:58.726Z,7.53
2024-03-13T14:36:29.665Z,6.05
2024-03-13T14:39:04.739Z,6.38
2024-03-13T14:41:35.241Z,6.15
2024-03-13T14:44:05.787Z,8.25
2024-03-13T14:46:36.713Z,6.60
2024-03-13T14:49:07.590Z,6.18
2024-03-13T14:51:38.119Z,7.40
2024-03-13T14:54:11.357Z,10.57
2024-03-13T14:56:41.883Z,6.45
2024-03-13T14:59:15.753Z,7.70
2024-03-13T15:01:46.289Z,7.82
2024-03-13T15:04:16.840Z,5.38
2024-03-13T15:06:47.252Z,8.30
2024-03-13T15:09:20.866Z,7.90
2024-03-13T15:11:52.088Z,6.05
2024-03-13T15:14:23.027Z,10.20
2024-03-13T15:16:54.331Z,8.25
2024-03-13T15:19:25.092Z,4.57
2024-03-13T15:21:56.345Z,5.82
2024-03-13T15:24:29.679Z,7.38
2024-03-13T15:27:00.239Z,6.75
2024-03-13T15:29:30.839Z,6.70
2024-03-13T15:32:01.251Z,6.47
2024-03-13T15:34:32.321Z,4.78
2024-03-13T15:37:02.884Z,9.27
2024-03-13T15:39:36.106Z,4.43
2024-03-13T15:42:06.672Z,6.55
2024-03-13T15:44:37.752Z,6.05
2024-03-13T15:47:08.321Z,5.88
2024-03-13T15:49:38.763Z,9.27
2024-03-13T15:52:09.637Z,8.30
2024-03-13T15:54:43.065Z,7.00
2024-03-13T15:57:13.704Z,10.82
2024-03-13T15:59:44.642Z,5.65
2024-03-13T16:02:16.277Z,14.05
2024-03-13T16:04:46.795Z,9.77
2024-03-13T16:07:17.670Z,6.93
2024-03-13T16:09:50.728Z,7.22
2024-03-13T16:12:21.584Z,7.65
2024-03-13T16:14:52.102Z,6.03
2024-03-13T16:17:22.999Z,11.00
2024-03-13T16:19:53.461Z,7.85
2024-03-13T16:22:25.614Z,9.25
2024-03-13T16:24:58.695Z,6.80
2024-03-13T16:27:29.651Z,8.02
2024-03-13T16:30:00.300Z,10.77
2024-03-13T16:32:31.529Z,10.13
2024-03-13T16:35:02.018Z,14.75
2024-03-13T16:37:32.575Z,9.15
2024-03-13T16:40:06.143Z,9.80
2024-03-13T16:42:36.900Z,8.95
2024-03-13T16:45:07.961Z,7.40
2024-03-13T16:47:41.239Z,11.05
2024-03-13T16:50:16.671Z,7.88
2024-03-13T16:52:47.928Z,20.48
2024-03-13T16:55:21.021Z,10.27
2024-03-13T16:57:51.780Z,14.70
2024-03-13T17:00:25.252Z,9.35
2024-03-13T17:02:57.065Z,11.90
2024-03-13T17:05:27.707Z,12.63
2024-03-13T17:07:58.641Z,10.55
2024-03-13T17:10:32.097Z,11.50
2024-03-13T17:13:04.472Z,10.68
2024-03-13T17:15:35.214Z,11.35
2024-03-13T17:18:05.889Z,14.68
2024-03-13T17:20:37.327Z,15.52
2024-03-13T17:23:09.817Z,12.65
2024-03-13T17:25:44.082Z,12.13
2024-03-13T17:28:14.659Z,11.45
2024-03-13T17:30:45.673Z,8.40
2024-03-13T17:33:16.202Z,10.02
2024-03-13T17:35:47.970Z,11.57
2024-03-13T17:38:18.737Z,15.05
2024-03-13T17:40:51.757Z,11.52
2024-03-13T17:43:22.256Z,9.88
2024-03-13T17:45:53.161Z,12.07
2024-03-13T17:48:23.683Z,17.85
2024-03-13T17:50:54.787Z,16.00
2024-03-13T17:53:25.399Z,15.15
2024-03-13T17:55:58.782Z,9.30
2024-03-13T17:58:29.358Z,10.50
2024-03-13T18:01:00.877Z,13.35
2024-03-13T18:03:32.150Z,11.15
2024-03-13T18:06:03.881Z,12.60
2024-03-13T18:08:35.016Z,15.05
2024-03-13T18:11:08.708Z,12.55
2024-03-13T18:13:44.416Z,11.25
2024-03-13T18:16:17.587Z,10.73
2024-03-13T18:18:48.301Z,16.23
2024-03-13T18:21:19.542Z,8.30
2024-03-13T18:23:50.741Z,12.70
2024-03-13T18:26:23.999Z,14.77
2024-03-13T18:28:55.408Z,9.85
2024-03-13T18:31:25.925Z,10.95
2024-03-13T18:33:57.029Z,15.57
2024-03-13T18:36:28.467Z,13.10
2024-03-13T18:38:59.314Z,14.13
2024-03-13T18:41:32.487Z,9.93
2024-03-13T18:44:02.928Z,13.00
2024-03-13T18:46:33.383Z,15.27
2024-03-13T18:49:04.057Z,11.75
2024-03-13T18:51:34.749Z,10.32
2024-03-13T18:54:07.046Z,10.13
2024-03-13T18:56:40.280Z,14.90
2024-03-13T18:59:14.798Z,9.57
2024-03-13T19:01:45.361Z,12.48
2024-03-13T19:04:15.931Z,13.85
2024-03-13T19:06:46.513Z,8.68
2024-03-13T19:09:21.074Z,13.68
2024-03-13T19:11:54.396Z,7.53
2024-03-13T19:14:24.940Z,11.48
2024-03-13T19:16:55.560Z,10.82
2024-03-13T19:19:26.039Z,12.48
2024-03-13T19:21:58.459Z,12.68
2024-03-13T19:24:29.843Z,9.52
2024-03-13T19:27:04.184Z,10.82
2024-03-13T19:29:35.216Z,10.77
2024-03-13T19:32:05.722Z,11.95
2024-03-13T19:34:38.288Z,11.75
2024-03-13T19:37:09.388Z,11.63
2024-03-13T19:39:39.964Z,8.18
2024-03-13T19:42:13.080Z,11.73
2024-03-13T19:44:43.870Z,8.68
2024-03-13T19:47:14.673Z,6.93
2024-03-13T19:49:45.245Z,10.45
2024-03-13T19:52:15.766Z,10.75
2024-03-13T19:54:46.212Z,10.20
2024-03-13T19:57:19.473Z,10.52
2024-03-13T19:59:50.087Z,14.43
2024-03-13T20:02:22.939Z,7.22
2024-03-13T20:04:53.604Z,12.50
2024-03-13T20:07:24.104Z,10.32
2024-03-13T20:09:55.994Z,11.35
2024-03-13T20:12:29.211Z,11.15
2024-03-13T20:15:00.250Z,13.23
2024-03-13T20:17:31.068Z,9.27
2024-03-13T20:20:02.528Z,11.52
2024-03-13T20:22:34.815Z,16.15
2024-03-13T20:25:05.422Z,10.77
2024-03-13T20:27:39.607Z,12.25
2024-03-13T20:30:11.731Z,9.57
2024-03-13T20:32:42.629Z,10.07
2024-03-13T20:35:13.606Z,8.27
2024-03-13T20:37:45.021Z,12.45
2024-03-13T20:40:16.268Z,9.00
2024-03-13T20:42:50.032Z,12.63
2024-03-13T20:45:21.314Z,13.00
2024-03-13T20:47:52.035Z,10.88
2024-03-13T20:50:23.359Z,10.07
2024-03-13T20:52:53.968Z,11.60
2024-03-13T20:55:24.644Z,11.15
2024-03-13T20:57:58.541Z,10.20
2024-03-13T21:00:31.792Z,10.05
2024-03-13T21:03:02.354Z,11.82
2024-03-13T21:05:33.028Z,11.50
2024-03-13T21:08:03.629Z,12.52
2024-03-13T21:10:35.112Z,13.25
2024-03-13T21:13:08.781Z,8.90
2024-03-13T21:15:46.107Z,8.02
2024-03-13T21:18:38.405Z,8.77
2024-03-13T21:21:09.213Z,10.30
2024-03-13T21:23:40.677Z,9.30
2024-03-13T21:26:11.187Z,10.40
2024-03-13T21:28:44.371Z,12.40
2024-03-13T21:31:14.798Z,9.02
2024-03-13T21:33:45.499Z,9.75
2024-03-13T21:36:16.157Z,6.93
2024-03-13T21:38:46.707Z,10.57
2024-03-13T21:41:18.476Z,9.45
2024-03-13T21:43:51.438Z,8.40
2024-03-13T21:46:24.285Z,8.40
2024-03-13T21:48:54.763Z,8.90
2024-03-13T21:51:25.725Z,14.10
2024-03-13T21:53:56.454Z,8.48
2024-03-13T21:56:28.161Z,9.40
2024-03-13T21:59:01.202Z,9.07
2024-03-13T22:01:31.762Z,8.93
2024-03-13T22:04:02.458Z,8.88
2024-03-13T22:06:32.981Z,8.60
2024-03-13T22:09:04.848Z,5.97
2024-03-13T22:11:35.406Z,8.38
2024-03-13T22:14:08.627Z,8.77
2024-03-13T22:16:39.296Z,9.52
2024-03-13T22:19:09.700Z,10.13
2024-03-13T22:21:40.402Z,9.30
2024-03-13T22:24:11.286Z,8.63
2024-03-13T22:26:41.961Z,7.72
2024-03-13T22:29:15.046Z,8.88
2024-03-13T22:31:45.665Z,7.53
2024-03-13T22:34:16.137Z,9.25
2024-03-13T22:36:46.919Z,7.00
2024-03-13T22:39:17.463Z,9.73
2024-03-13T22:41:48.826Z,6.35
2024-03-13T22:44:22.726Z,7.68
2024-03-13T22:46:53.198Z,8.05
2024-03-13T22:49:23.708Z,10.30
2024-03-13T22:51:55.033Z,9.25
2024-03-13T22:54:25.621Z,8.50
2024-03-13T22:56:56.333Z,6.57
2024-03-13T22:59:29.686Z,10.10
2024-03-13T23:02:01.574Z,7.65
2024-03-13T23:04:35.460Z,9.07
2024-03-13T23:07:06.471Z,8.73
2024-03-13T23:09:40.224Z,10.13
2024-03-13T23:12:11.226Z,8.38
2024-03-13T23:14:44.661Z,8.50
2024-03-13T23:17:15.146Z,8.98
2024-03-13T23:19:45.902Z,9.70
2024-03-13T23:22:16.350Z,8.85
2024-03-13T23:24:46.988Z,9.43
2024-03-13T23:27:17.724Z,9.40
2024-03-13T23:29:51.373Z,6.40
2024-03-13T23:32:22.039Z,6.30
2024-03-13T23:34:52.486Z,8.73
2024-03-13T23:37:22.967Z,5.90
2024-03-13T23:39:54.422Z,7.55
2024-03-13T23:42:25.238Z,6.85
2024-03-13T23:44:58.426Z,9.73
2024-03-13T23:47:28.939Z,6.93
2024-03-13T23:49:59.742Z,9.07
2024-03-13T23:52:30.171Z,6.82
2024-03-13T23:55:01.202Z,6.50
2024-03-13T23:57:31.934Z,5.80
